Time;durP1;ratioP1;P1;durP2;ratioP2;P2;SDS_P1;SDS_P2;PMS_P1;PMS_P2;Temp;Humidity;BMP_temperature;BMP_pressure;BME280_temperature;BME280_humidity;BME280_pressure;Samples;Min_cycle;Max_cycle;Signal;HPM_P1;HPM_P2
2022/05/03 00:01:19;;;;;;;2.38;1.52;;;5.60;99.90;;;;;;4732391;30;20435;-89
2022/05/03 00:04:07;;;;;;;2.88;1.60;;;5.60;99.90;;;;;;4720423;30;20533;-90
2022/05/03 00:06:56;;;;;;;3.70;1.67;;;5.50;99.90;;;;;;4721024;30;20048;-89
2022/05/03 00:09:39;;;;;;;3.03;1.70;;;5.50;99.90;;;;;;4721070;30;20052;-86
2022/05/03 00:12:12;;;;;;;3.05;1.70;;;5.50;99.90;;;;;;4715731;30;20092;-88
2022/05/03 00:14:48;;;;;;;4.07;1.90;;;5.40;99.90;;;;;;4720731;30;20079;-90
2022/05/03 00:17:18;;;;;;;2.78;1.40;;;5.50;99.90;;;;;;4720395;30;20504;-87
2022/05/03 00:19:45;;;;;;;2.25;1.40;;;5.50;99.90;;;;;;4735656;30;20444;-87
2022/05/03 00:22:19;;;;;;;2.40;1.70;;;5.50;99.90;;;;;;4721155;30;20053;-87
2022/05/03 00:24:54;;;;;;;4.03;1.55;;;5.40;99.90;;;;;;4719677;30;20075;-88
2022/05/03 00:27:27;;;;;;;2.28;1.25;;;5.40;99.90;;;;;;4720108;30;20145;-88
2022/05/03 00:29:59;;;;;;;2.47;1.33;;;5.40;99.90;;;;;;4741557;29;20058;-88
2022/05/03 00:32:34;;;;;;;2.03;1.20;;;5.40;99.90;;;;;;4791657;29;20055;-88
2022/05/03 00:35:00;;;;;;;2.05;1.20;;;5.40;99.90;;;;;;4792129;29;20054;-88
2022/05/03 00:37:26;;;;;;;2.22;1.70;;;5.40;99.90;;;;;;4782690;29;20055;-88
2022/05/03 00:39:55;;;;;;;2.60;1.50;;;5.10;99.90;;;;;;4807610;29;20058;-88
2022/05/03 00:42:23;;;;;;;2.63;1.80;;;5.30;99.90;;;;;;4777104;29;20054;-89
2022/05/03 00:45:29;;;;;;;4.43;1.40;;;5.30;99.90;;;;;;4792404;29;20112;-88
2022/05/03 00:48:18;;;;;;;2.38;1.45;;;5.30;99.90;;;;;;4791104;29;20058;-88
2022/05/03 00:50:55;;;;;;;2.03;1.23;;;5.30;99.90;;;;;;4805338;29;20130;-87
2022/05/03 00:53:33;;;;;;;2.03;1.58;;;5.30;99.90;;;;;;4797712;29;20066;-87
2022/05/03 00:55:59;;;;;;;1.55;1.00;;;5.30;99.90;;;;;;4808280;29;20187;-88
2022/05/03 00:58:48;;;;;;;1.30;0.90;;;5.30;99.90;;;;;;4791586;29;20559;-88
2022/05/03 01:01:33;;;;;;;1.85;1.20;;;5.30;99.90;;;;;;4798873;29;20066;-87
2022/05/03 01:04:11;;;;;;;1.40;0.95;;;5.30;99.90;;;;;;4807685;29;20061;-87
2022/05/03 01:06:56;;;;;;;2.08;1.15;;;5.30;99.90;;;;;;4787003;29;20042;-87
2022/05/03 01:09:40;;;;;;;1.58;1.00;;;5.30;99.90;;;;;;4784451;29;20412;-87
2022/05/03 01:12:33;;;;;;;1.90;1.30;;;5.40;99.90;;;;;;4797185;29;20055;-88
2022/05/03 01:15:37;;;;;;;1.50;0.90;;;5.40;99.90;;;;;;4798247;29;20424;-87
2022/05/03 01:18:14;;;;;;;1.00;0.80;;;5.40;99.90;;;;;;4734922;30;20059;-87
2022/05/03 01:21:03;;;;;;;2.13;1.27;;;5.40;99.90;;;;;;4704457;30;20064;-88
2022/05/03 01:23:51;;;;;;;1.67;1.10;;;5.40;99.90;;;;;;4692000;30;20167;-87
2022/05/03 01:26:40;;;;;;;1.27;1.05;;;5.40;99.90;;;;;;4719702;30;20067;-88
2022/05/03 01:29:28;;;;;;;1.50;0.90;;;5.40;99.90;;;;;;4719586;30;20052;-88
2022/05/03 01:32:02;;;;;;;1.80;1.10;;;5.40;99.90;;;;;;4719229;30;20118;-88
2022/05/03 01:34:41;;;;;;;;;;;;;;;;;;;;;
2022/05/03 01:37:26;;;;;;;1.88;1.00;;;5.40;99.90;;;;;;4732876;30;20127;-87
2022/05/03 01:40:08;;;;;;;2.00;1.13;;;5.40;99.90;;;;;;4735451;30;20068;-89
2022/05/03 01:43:01;;;;;;;1.58;1.20;;;5.40;99.90;;;;;;4724042;30;20111;-88
2022/05/03 01:45:38;;;;;;;1.30;1.10;;;5.40;99.90;;;;;;4733543;30;20056;-88
2022/05/03 01:48:18;;;;;;;1.30;1.00;;;5.40;99.90;;;;;;4792790;29;20055;-88
2022/05/03 01:51:05;;;;;;;2.03;1.42;;;5.40;99.90;;;;;;4797907;29;20063;-88
2022/05/03 01:53:45;;;;;;;1.50;1.13;;;5.40;99.90;;;;;;4798321;29;20058;-88
2022/05/03 01:56:20;;;;;;;1.73;1.20;;;5.40;99.90;;;;;;4809908;29;20059;-88
2022/05/03 01:58:51;;;;;;;2.17;1.30;;;5.40;99.90;;;;;;4787227;29;20088;-87
2022/05/03 02:01:54;;;;;;;2.15;1.05;;;5.40;99.90;;;;;;4793396;29;20050;-87
2022/05/03 02:04:44;;;;;;;2.22;1.35;;;5.50;99.90;;;;;;4766297;30;20062;-88
2022/05/03 02:07:29;;;;;;;1.42;0.90;;;5.50;99.90;;;;;;4764975;30;20117;-87
2022/05/03 02:10:07;;;;;;;2.22;1.27;;;5.40;99.90;;;;;;4754338;30;20054;-87
2022/05/03 02:12:35;;;;;;;1.42;1.10;;;5.50;99.90;;;;;;4753457;30;20064;-88
2022/05/03 02:15:07;;;;;;;2.45;1.20;;;5.50;99.90;;;;;;4739611;30;20456;-88
2022/05/03 02:17:49;;;;;;;1.70;1.10;;;5.60;99.90;;;;;;4754278;30;20060;-87
2022/05/03 02:20:42;;;;;;;1.65;1.00;;;5.60;99.90;;;;;;4756718;30;20056;-88
2022/05/03 02:23:35;;;;;;;1.75;1.20;;;5.70;99.90;;;;;;4753514;30;20498;-87
2022/05/03 02:26:18;;;;;;;2.17;1.00;;;5.70;99.90;;;;;;4753515;30;20060;-88
2022/05/03 02:29:06;;;;;;;1.98;1.00;;;5.80;99.90;;;;;;4753254;30;20060;-87
2022/05/03 02:32:06;;;;;;;1.70;1.10;;;6.60;99.90;;;;;;4768600;30;20087;-87
2022/05/03 02:34:48;;;;;;;1.77;1.17;;;5.80;99.90;;;;;;4753807;30;20056;-85
2022/05/03 02:37:25;;;;;;;1.27;0.90;;;5.50;99.90;;;;;;4749920;30;20066;-88
2022/05/03 02:40:08;;;;;;;2.40;1.25;;;5.10;99.90;;;;;;4753643;30;20092;-88
2022/05/03 02:42:35;;;;;;;2.30;1.20;;;6.00;99.90;;;;;;4790264;29;20073;-87
2022/05/03 02:45:03;;;;;;;2.42;1.40;;;6.80;99.90;;;;;;4789060;29;20416;-87
2022/05/03 02:47:48;;;;;;;2.55;1.30;;;6.00;99.90;;;;;;4789872;29;20069;-87
2022/05/03 02:50:48;;;;;;;1.50;1.20;;;6.00;99.90;;;;;;4784918;29;20058;-87
2022/05/03 02:53:41;;;;;;;2.35;1.40;;;6.50;99.90;;;;;;4712772;30;20160;-87
2022/05/03 02:56:35;;;;;;;2.72;2.00;;;6.10;99.90;;;;;;4718245;30;20105;-87
2022/05/03 02:59:18;;;;;;;2.88;2.00;;;6.00;99.90;;;;;;4732262;30;20463;-87
2022/05/03 03:02:14;;;;;;;3.63;2.33;;;6.00;99.90;;;;;;4718253;30;20533;-87
2022/05/03 03:05:23;;;;;;;3.17;2.15;;;6.50;99.90;;;;;;4717864;30;20061;-87
2022/05/03 03:08:01;;;;;;;2.90;1.85;;;6.10;99.90;;;;;;4674149;30;20053;-89
2022/05/03 03:10:56;;;;;;;2.72;1.65;;;6.20;99.90;;;;;;4667220;30;20065;-88
2022/05/03 03:14:06;;;;;;;2.22;1.65;;;6.20;99.90;;;;;;4686252;30;20058;-88
2022/05/03 03:16:43;;;;;;;3.63;2.03;;;6.20;99.90;;;;;;4666044;30;20066;-88
2022/05/03 03:19:38;;;;;;;2.42;1.60;;;6.40;99.90;;;;;;4653659;30;20058;-88
2022/05/03 03:22:13;;;;;;;6.00;2.42;;;6.30;99.90;;;;;;4667367;30;20061;-87
2022/05/03 03:24:43;;;;;;;3.63;1.98;;;6.30;99.90;;;;;;4666689;30;20120;-88
2022/05/03 03:27:21;;;;;;;2.78;2.05;;;6.40;99.90;;;;;;4680689;30;20157;-88
2022/05/03 03:29:57;;;;;;;3.42;2.38;;;6.90;99.90;;;;;;4696446;30;20488;-87
2022/05/03 03:32:26;;;;;;;;;;;6.70;99.90;;;;;;4715134;30;20084;-88
2022/05/03 03:34:59;;;;;;;3.10;1.98;;;6.70;99.90;;;;;;4715259;30;19937;-88
2022/05/03 03:37:38;;;;;;;4.63;2.78;;;6.50;99.90;;;;;;4714333;30;20060;-89
2022/05/03 03:43:45;;;;;;;3.30;2.17;;;6.50;99.90;;;;;;4747574;29;20095;-88
2022/05/03 03:46:15;;;;;;;4.28;2.78;;;7.20;99.90;;;;;;4796254;29;20074;-87
2022/05/03 03:48:41;;;;;;;4.00;2.42;;;6.40;99.90;;;;;;4785361;29;20058;-87
2022/05/03 03:51:12;;;;;;;4.88;2.53;;;6.70;99.90;;;;;;4795701;29;20063;-87
2022/05/03 03:53:39;;;;;;;2.80;1.83;;;6.70;99.90;;;;;;4805654;29;20428;-88
2022/05/03 03:56:05;;;;;;;4.53;2.40;;;7.20;99.90;;;;;;4811900;29;20065;-88
2022/05/03 03:58:38;;;;;;;3.35;2.20;;;7.10;99.90;;;;;;4789352;29;20059;-88
2022/05/03 04:01:09;;;;;;;5.68;2.80;;;6.90;99.90;;;;;;4790654;29;20055;-88
2022/05/03 04:03:42;;;;;;;4.15;2.72;;;6.90;99.90;;;;;;4785092;29;20123;-88
2022/05/03 04:06:11;;;;;;;5.20;2.70;;;6.90;99.90;;;;;;4794586;29;20145;-87
2022/05/03 04:08:37;;;;;;;4.85;2.65;;;6.90;99.90;;;;;;4795415;29;20050;-88
2022/05/03 04:11:16;;;;;;;4.63;2.53;;;6.90;99.90;;;;;;4789600;29;20412;-87
2022/05/03 04:13:45;;;;;;;3.60;2.25;;;7.00;99.90;;;;;;4805133;29;20047;-88
2022/05/03 04:16:19;;;;;;;4.68;2.72;;;7.30;99.90;;;;;;4788636;29;20063;-88
2022/05/03 04:18:45;;;;;;;5.47;3.00;;;7.50;99.90;;;;;;4788724;29;20471;-87
2022/05/03 04:21:22;;;;;;;4.55;2.60;;;7.10;99.90;;;;;;4783229;29;20063;-88
2022/05/03 04:23:59;;;;;;;5.57;3.03;;;8.10;99.90;;;;;;4815045;29;20059;-88
2022/05/03 04:26:36;;;;;;;6.18;2.80;;;7.20;99.90;;;;;;4788260;29;20063;-88
2022/05/03 04:29:11;;;;;;;4.55;2.75;;;7.60;99.90;;;;;;4796264;29;20069;-88
2022/05/03 04:31:41;;;;;;;4.28;2.72;;;7.50;99.90;;;;;;4790803;29;20046;-88
2022/05/03 04:34:12;;;;;;;5.18;2.90;;;7.40;99.90;;;;;;4791473;29;20055;-89
2022/05/03 04:36:41;;;;;;;6.72;3.45;;;6.90;99.90;;;;;;4788700;29;20077;-88
2022/05/03 04:39:24;;;;;;;;;;;;;;;;;;;;;
2022/05/03 04:42:00;;;;;;;5.95;3.63;;;7.40;99.90;;;;;;4789521;29;20063;-90
2022/05/03 04:44:38;;;;;;;6.07;3.53;;;7.50;99.90;;;;;;4795708;29;20486;-88
2022/05/03 04:47:09;;;;;;;6.47;3.65;;;7.90;99.90;;;;;;4790136;29;20047;-89
2022/05/03 04:49:44;;;;;;;7.15;3.97;;;7.50;99.90;;;;;;4801062;29;20063;-89
2022/05/03 04:52:17;;;;;;;5.93;3.60;;;7.50;99.90;;;;;;4790016;29;20130;-89
2022/05/03 04:54:54;;;;;;;5.13;3.05;;;7.60;99.90;;;;;;4771461;29;20047;-89
2022/05/03 04:57:37;;;;;;;5.18;3.28;;;8.10;99.90;;;;;;4807648;29;20108;-89
2022/05/03 05:00:06;;;;;;;5.47;3.05;;;7.60;99.90;;;;;;4791932;29;20065;-88
2022/05/03 05:02:44;;;;;;;5.20;3.03;;;7.60;99.90;;;;;;4807701;29;20576;-90
2022/05/03 05:05:10;;;;;;;;;;;7.90;99.90;;;;;;4788826;29;20082;-88
2022/05/03 05:07:48;;;;;;;6.78;3.75;;;7.10;99.90;;;;;;4794430;29;19967;-89
2022/05/03 05:10:30;;;;;;;5.05;3.58;;;8.00;99.90;;;;;;4794168;29;20127;-89
2022/05/03 05:13:00;;;;;;;7.13;4.05;;;7.80;99.90;;;;;;4820273;29;20104;-89
2022/05/03 05:15:34;;;;;;;6.50;3.67;;;8.40;99.90;;;;;;4813144;29;20407;-89
2022/05/03 05:18:18;;;;;;;;;;;;;;;;;;;;;
2022/05/03 05:21:17;;;;;;;;;;;;;;;;;;;;;
2022/05/03 05:23:44;;;;;;;9.15;5.55;;;7.90;99.90;;;;;;4788761;29;20069;-87
2022/05/03 05:26:10;;;;;;;7.28;4.68;;;7.90;99.90;;;;;;4790012;29;20055;-88
2022/05/03 05:28:36;;;;;;;8.25;4.30;;;7.90;99.90;;;;;;4801953;29;20059;-88
2022/05/03 05:31:02;;;;;;;10.00;5.68;;;8.00;99.90;;;;;;4791196;29;20204;-88
2022/05/03 05:33:33;;;;;;;8.85;5.03;;;8.20;99.90;;;;;;4791207;29;20458;-88
2022/05/03 05:36:04;;;;;;;13.60;8.43;;;8.00;99.90;;;;;;4792688;29;20063;-88
2022/05/03 05:38:32;;;;;;;12.85;7.60;;;8.10;99.90;;;;;;4814693;29;20413;-88
2022/05/03 05:41:20;;;;;;;12.77;8.50;;;8.10;99.90;;;;;;4770715;29;20067;-90
2022/05/03 05:43:47;;;;;;;18.70;11.20;;;8.30;99.90;;;;;;4773426;29;20055;-87
2022/05/03 05:46:14;;;;;;;15.57;9.18;;;8.20;99.90;;;;;;4809609;29;20055;-87
2022/05/03 05:48:40;;;;;;;14.52;8.90;;;8.80;99.90;;;;;;4790903;29;20122;-86
2022/05/03 05:51:06;;;;;;;13.77;7.50;;;9.30;99.90;;;;;;4791233;29;20058;-87
2022/05/03 05:53:31;;;;;;;14.52;7.60;;;8.60;99.90;;;;;;4782791;29;20086;-87
2022/05/03 05:55:57;;;;;;;17.85;7.25;;;8.50;99.90;;;;;;4809919;29;20133;-86
2022/05/03 05:58:23;;;;;;;12.93;5.47;;;8.70;99.90;;;;;;4799458;29;20073;-87
2022/05/03 06:00:49;;;;;;;16.02;4.45;;;8.70;99.90;;;;;;4794418;29;20058;-87
2022/05/03 06:03:25;;;;;;;9.75;3.40;;;9.00;99.90;;;;;;4795807;29;20063;-90
2022/05/03 06:05:57;;;;;;;9.43;2.50;;;8.90;99.90;;;;;;4788974;29;20718;-86
2022/05/03 06:08:24;;;;;;;7.55;2.28;;;9.10;99.90;;;;;;4809512;29;20408;-87
2022/05/03 06:10:49;;;;;;;7.05;2.08;;;8.80;99.90;;;;;;4790468;29;20082;-85
2022/05/03 06:13:15;;;;;;;6.43;1.88;;;9.60;99.90;;;;;;4790521;29;20047;-84
2022/05/03 06:15:42;;;;;;;9.45;2.60;;;9.80;99.90;;;;;;4790337;29;20059;-85
2022/05/03 06:18:08;;;;;;;8.68;1.83;;;9.40;99.90;;;;;;4812300;29;20295;-84
2022/05/03 06:20:36;;;;;;;10.38;1.65;;;9.90;99.90;;;;;;4812395;29;20058;-84
2022/05/03 06:23:03;;;;;;;7.70;2.20;;;9.20;99.90;;;;;;4806643;29;20050;-84
2022/05/03 06:25:29;;;;;;;8.63;2.03;;;8.90;99.90;;;;;;4806838;29;20397;-85
2022/05/03 06:27:55;;;;;;;6.03;1.58;;;9.00;99.90;;;;;;4810039;29;20062;-85
2022/05/03 06:30:21;;;;;;;5.95;1.42;;;8.90;99.90;;;;;;4792495;29;20058;-86
2022/05/03 06:32:56;;;;;;;8.23;1.40;;;8.90;99.90;;;;;;4789984;29;20062;-87
2022/05/03 06:35:21;;;;;;;9.93;1.67;;;9.60;99.90;;;;;;4790478;29;20055;-84
2022/05/03 06:37:47;;;;;;;7.88;1.88;;;9.60;99.90;;;;;;4796863;29;20073;-84
2022/05/03 06:40:13;;;;;;;7.90;1.83;;;8.90;99.90;;;;;;4812673;29;20061;-84
2022/05/03 06:42:40;;;;;;;8.00;2.25;;;9.50;99.90;;;;;;4789585;29;20059;-86
2022/05/03 06:45:07;;;;;;;9.05;2.13;;;9.70;99.90;;;;;;4792379;29;20521;-84
2022/05/03 06:47:33;;;;;;;8.70;1.80;;;8.90;99.90;;;;;;4815270;29;20125;-83
2022/05/03 06:49:58;;;;;;;13.60;2.05;;;9.80;99.90;;;;;;4811689;29;20477;-83
2022/05/03 06:52:25;;;;;;;10.77;2.28;;;9.60;99.90;;;;;;4805893;29;20047;-84
2022/05/03 06:54:51;;;;;;;8.38;2.60;;;9.50;99.90;;;;;;4789328;29;20055;-84
2022/05/03 06:57:17;;;;;;;6.38;1.92;;;9.00;99.90;;;;;;4813167;29;20107;-85
2022/05/03 06:59:43;;;;;;;9.98;2.50;;;9.00;99.90;;;;;;4789277;29;20058;-84
2022/05/03 07:02:09;;;;;;;12.80;1.80;;;9.00;99.90;;;;;;4805318;29;20057;-86
2022/05/03 07:04:34;;;;;;;7.00;1.60;;;9.10;99.90;;;;;;4806241;29;20051;-84
2022/05/03 07:07:00;;;;;;;6.85;1.50;;;9.10;99.90;;;;;;4796198;29;20046;-84
2022/05/03 07:09:26;;;;;;;13.95;3.28;;;9.20;99.90;;;;;;4805339;29;20117;-85
2022/05/03 07:11:51;;;;;;;5.75;1.60;;;9.40;99.90;;;;;;4786353;29;20442;-85
2022/05/03 07:14:18;;;;;;;12.25;2.50;;;9.30;99.90;;;;;;4789997;29;20071;-85
2022/05/03 07:16:44;;;;;;;11.15;2.22;;;9.40;99.90;;;;;;4789094;29;20051;-85
2022/05/03 07:24:38;;;;;;;7.60;1.48;;;9.50;99.90;;;;;;4805414;29;20460;-85
2022/05/03 07:27:04;;;;;;;8.18;1.58;;;9.70;99.90;;;;;;4805035;29;20078;-85
2022/05/03 07:29:30;;;;;;;8.95;1.08;;;9.70;99.90;;;;;;4804987;29;20191;-85
2022/05/03 07:31:56;;;;;;;10.82;1.88;;;9.70;99.90;;;;;;4774367;29;20063;-85
2022/05/03 07:34:22;;;;;;;8.43;1.80;;;10.70;99.90;;;;;;4804027;29;20159;-85
2022/05/03 07:36:47;;;;;;;13.63;2.05;;;9.90;99.90;;;;;;4805214;29;20466;-85
2022/05/03 07:39:13;;;;;;;8.70;2.58;;;10.50;99.90;;;;;;4788762;29;20574;-84
2022/05/03 07:41:39;;;;;;;5.78;1.77;;;9.90;99.90;;;;;;4788285;29;20083;-85
2022/05/03 07:44:05;;;;;;;7.90;1.30;;;10.00;99.90;;;;;;4804549;29;20061;-84
2022/05/03 07:46:30;;;;;;;9.50;1.67;;;10.00;99.90;;;;;;4789372;29;20055;-84
2022/05/03 07:48:56;;;;;;;10.88;1.58;;;10.00;99.90;;;;;;4788542;29;20069;-84
2022/05/03 07:51:22;;;;;;;10.30;2.05;;;10.20;99.90;;;;;;4788377;29;20442;-84
2022/05/03 07:53:48;;;;;;;8.85;2.08;;;10.10;99.90;;;;;;4804968;29;20504;-86
2022/05/03 07:56:13;;;;;;;6.28;1.70;;;10.10;99.90;;;;;;4811820;29;20046;-86
2022/05/03 07:58:39;;;;;;;10.80;1.80;;;10.10;99.90;;;;;;4805353;29;20097;-84
2022/05/03 08:01:05;;;;;;;17.42;2.05;;;10.20;99.90;;;;;;4805143;29;20063;-86
2022/05/03 08:03:33;;;;;;;9.43;1.33;;;10.20;99.90;;;;;;4804726;29;20051;-87
2022/05/03 08:06:02;;;;;;;9.98;1.80;;;10.10;99.90;;;;;;4774036;29;20119;-87
2022/05/03 08:08:29;;;;;;;7.20;1.50;;;10.20;99.90;;;;;;4796007;29;20141;-90
2022/05/03 08:11:28;;;;;;;8.52;1.60;;;10.30;99.90;;;;;;4795313;29;20400;-91
2022/05/03 08:18:11;;;;;;;;;;;10.40;99.90;;;;;;4811391;29;20565;-89
2022/05/03 08:20:53;;;;;;;5.90;1.20;;;10.40;99.90;;;;;;4728106;30;19949;-89
2022/05/03 08:23:19;;;;;;;8.77;1.15;;;10.80;99.90;;;;;;4735539;30;20518;-85
2022/05/03 08:25:45;;;;;;;5.03;1.40;;;10.40;99.90;;;;;;4752423;30;20083;-91
2022/05/03 08:28:10;;;;;;;6.97;1.20;;;10.50;99.90;;;;;;4738748;30;20060;-86
2022/05/03 08:30:36;;;;;;;5.75;1.33;;;10.50;99.90;;;;;;4737670;30;20087;-88
2022/05/03 08:33:02;;;;;;;5.43;1.30;;;11.10;99.90;;;;;;4752073;30;20572;-90
2022/05/03 08:35:28;;;;;;;7.15;1.35;;;10.50;99.90;;;;;;4752803;30;20064;-86
2022/05/03 08:43:24;;;;;;;7.15;1.38;;;11.40;99.90;;;;;;4752997;30;20048;-91
2022/05/03 08:45:52;;;;;;;6.95;1.42;;;10.70;99.90;;;;;;4739114;30;20104;-87
2022/05/03 08:48:20;;;;;;;4.40;1.05;;;11.20;99.90;;;;;;4752452;30;20537;-87
2022/05/03 08:50:46;;;;;;;8.52;1.00;;;10.70;99.90;;;;;;4737366;30;20056;-86
2022/05/03 08:53:13;;;;;;;5.47;0.98;;;11.60;99.90;;;;;;4752368;30;20545;-86
2022/05/03 08:55:42;;;;;;;5.20;1.00;;;11.10;99.90;;;;;;4739479;30;20060;-87
2022/05/03 08:58:08;;;;;;;6.80;0.80;;;11.00;99.90;;;;;;4811964;29;20131;-87
2022/05/03 09:00:34;;;;;;;4.72;0.90;;;11.20;99.90;;;;;;4798876;29;20055;-86
2022/05/03 09:03:00;;;;;;;4.88;1.10;;;11.30;99.90;;;;;;4792009;29;20069;-87
2022/05/03 09:05:27;;;;;;;3.55;1.13;;;11.50;99.90;;;;;;4813893;29;20046;-87
2022/05/03 09:08:01;;;;;;;8.73;1.15;;;11.60;99.90;;;;;;4808255;29;20091;-87
2022/05/03 09:10:31;;;;;;;5.05;1.20;;;11.90;99.90;;;;;;4798999;29;20130;-86
2022/05/03 09:13:21;;;;;;;4.03;1.10;;;12.00;99.90;;;;;;4798856;29;20527;-86
2022/05/03 09:16:08;;;;;;;6.63;1.02;;;11.80;99.90;;;;;;4813838;29;20480;-86
2022/05/03 09:18:34;;;;;;;4.40;1.15;;;11.80;99.90;;;;;;4807693;29;20053;-86
2022/05/03 09:23:53;;;;;;;3.15;0.80;;;11.90;99.90;;;;;;4791063;29;20058;-87
2022/05/03 09:26:39;;;;;;;3.43;0.87;;;12.20;99.90;;;;;;4791326;29;20142;-88
2022/05/03 09:29:22;;;;;;;;;;;;;;;;;;;;;
2022/05/03 09:31:48;;;;;;;4.22;0.90;;;12.20;99.90;;;;;;4798203;29;20063;-87
2022/05/03 09:34:26;;;;;;;2.13;0.60;;;12.20;99.90;;;;;;4792733;29;20051;-88
2022/05/03 09:37:02;;;;;;;5.90;0.90;;;12.50;99.90;;;;;;4792787;29;20058;-88
2022/05/03 09:39:32;;;;;;;;;;;12.60;99.90;;;;;;4802786;29;20070;-87
2022/05/03 09:42:09;;;;;;;4.18;0.70;;;12.60;99.90;;;;;;4816087;29;19986;-90
2022/05/03 09:44:36;;;;;;;6.18;0.73;;;12.80;99.90;;;;;;4809305;29;20137;-92
2022/05/03 09:47:11;;;;;;;5.50;1.00;;;13.00;99.90;;;;;;4808714;29;20065;-89
2022/05/03 09:49:41;;;;;;;2.60;0.80;;;13.10;99.90;;;;;;4784301;29;20573;-91
2022/05/03 09:52:12;;;;;;;2.67;0.65;;;13.10;99.90;;;;;;4810297;29;20316;-89
2022/05/03 09:57:25;;;;;;;4.15;0.90;;;13.30;99.90;;;;;;4811186;24;20062;-87
2022/05/03 09:59:54;;;;;;;6.15;0.90;;;13.70;99.90;;;;;;4814029;29;20504;-86
2022/05/03 10:02:26;;;;;;;4.70;0.80;;;13.30;99.90;;;;;;4783905;29;20492;-86
2022/05/03 10:05:00;;;;;;;4.03;0.63;;;13.50;99.90;;;;;;4790361;29;20146;-86
2022/05/03 10:07:27;;;;;;;4.13;0.80;;;13.30;99.90;;;;;;4791078;29;20572;-91
2022/05/03 10:21:59;;;;;;;4.60;0.80;;;13.60;99.90;;;;;;4787217;29;20051;-91
2022/05/03 10:24:26;;;;;;;3.58;0.70;;;13.70;99.90;;;;;;4807869;29;20051;-90
2022/05/03 10:26:52;;;;;;;2.92;0.70;;;13.60;99.90;;;;;;4792175;29;20074;-87
2022/05/03 10:29:19;;;;;;;1.58;0.88;;;13.70;99.90;;;;;;4807913;29;20058;-89
2022/05/03 10:32:05;;;;;;;4.55;0.63;;;13.60;99.90;;;;;;4819214;29;20054;-89
2022/05/03 10:34:40;;;;;;;4.00;0.80;;;13.70;99.90;;;;;;4825344;29;20089;-87
2022/05/03 10:37:13;;;;;;;3.65;0.60;;;13.80;99.90;;;;;;4814398;29;20516;-91
2022/05/03 10:44:16;;;;;;;3.97;0.60;;;13.80;99.90;;;;;;4817121;29;20477;-87
2022/05/03 10:46:50;;;;;;;1.73;0.50;;;13.90;99.90;;;;;;4804278;29;20051;-92
2022/05/03 10:49:20;;;;;;;4.05;0.73;;;14.30;99.90;;;;;;4806027;29;20116;-90
2022/05/03 10:51:45;;;;;;;3.53;0.57;;;13.80;99.80;;;;;;4791160;29;20413;-91
2022/05/03 10:54:11;;;;;;;3.35;0.57;;;14.20;99.90;;;;;;4814410;29;20051;-92
2022/05/03 10:57:00;;;;;;;1.40;0.60;;;14.30;98.50;;;;;;4810606;29;20053;-91
2022/05/03 10:59:46;;;;;;;1.20;0.47;;;14.20;98.60;;;;;;4791591;29;20062;-90
2022/05/03 11:02:12;;;;;;;5.07;1.33;;;14.30;99.40;;;;;;4791722;29;20496;-86
2022/05/03 11:05:12;;;;;;;2.55;0.95;;;14.60;97.80;;;;;;4820551;29;20051;-92
2022/05/03 11:07:38;;;;;;;4.93;0.70;;;14.50;96.80;;;;;;4813161;29;20480;-89
2022/05/03 11:10:39;;;;;;;0.90;0.47;;;14.40;98.90;;;;;;4816656;29;20120;-90
2022/05/03 11:13:45;;;;;;;2.25;0.50;;;14.50;98.40;;;;;;4754450;30;20084;-87
2022/05/03 11:20:36;;;;;;;2.75;0.60;;;14.20;97.50;;;;;;5105358;24;20109;31
2022/05/03 11:28:35;;;;;;;2.03;0.45;;;14.60;98.00;;;;;;5767802;24;22036;-89
2022/05/03 12:27:35;;;;;;;2.63;0.60;;;15.30;95.40;;;;;;5562347;24;20060;-86
2022/05/03 12:30:12;;;;;;;2.38;0.50;;;15.40;95.50;;;;;;4805472;29;20063;-89
2022/05/03 12:32:39;;;;;;;4.20;0.73;;;15.60;96.10;;;;;;4794804;29;20063;-88
2022/05/03 12:35:05;;;;;;;2.08;0.43;;;15.60;95.30;;;;;;4773866;29;20496;-88
2022/05/03 12:37:31;;;;;;;6.18;0.80;;;15.60;96.50;;;;;;4805523;29;20055;-92
2022/05/03 12:40:00;;;;;;;5.22;0.77;;;15.50;95.80;;;;;;4811113;29;20156;-93
2022/05/03 12:42:25;;;;;;;5.45;1.02;;;15.50;94.90;;;;;;4805875;29;20061;-90
2022/05/03 12:44:57;;;;;;;2.10;0.50;;;15.50;96.70;;;;;;4802354;29;20145;-90
2022/05/03 12:47:26;;;;;;;2.13;0.47;;;15.60;96.10;;;;;;4805037;29;20054;-87
2022/05/03 12:49:52;;;;;;;4.03;0.57;;;15.40;95.90;;;;;;4782848;29;20090;-90
2022/05/03 12:52:27;;;;;;;4.20;0.55;;;15.40;95.60;;;;;;4804024;29;20142;-87
2022/05/03 12:54:59;;;;;;;4.22;0.80;;;15.30;94.80;;;;;;4812297;29;20118;-89
2022/05/03 13:00:11;;;;;;;5.30;0.90;;;15.20;97.20;;;;;;4804872;29;20047;-87
2022/05/03 13:02:37;;;;;;;3.35;0.60;;;15.30;97.00;;;;;;4805270;29;20062;-86
2022/05/03 13:05:04;;;;;;;4.03;0.68;;;15.40;97.50;;;;;;4811069;29;20054;-85
2022/05/03 13:07:30;;;;;;;3.85;1.08;;;15.40;95.70;;;;;;4815644;29;20050;-86
2022/05/03 13:09:56;;;;;;;1.42;0.60;;;15.60;95.30;;;;;;4807702;29;20133;-88
2022/05/03 13:16:02;;;;;;;3.45;0.52;;;16.10;97.10;;;;;;4808763;29;20116;-86
2022/05/03 13:18:28;;;;;;;4.78;1.00;;;15.80;95.50;;;;;;4792388;29;20463;-87
2022/05/03 13:20:54;;;;;;;2.75;0.80;;;15.30;94.50;;;;;;4808277;29;20115;-87
2022/05/03 13:23:20;;;;;;;4.13;0.73;;;15.20;96.30;;;;;;4808270;29;20062;-87
2022/05/03 13:25:46;;;;;;;8.73;0.98;;;15.60;96.40;;;;;;4808015;29;20126;-85
2022/05/03 13:28:12;;;;;;;4.35;0.80;;;16.00;94.70;;;;;;4808142;29;20453;-88
2022/05/03 13:30:38;;;;;;;7.18;0.70;;;16.10;94.10;;;;;;4808374;29;20059;-87
2022/05/03 13:33:04;;;;;;;2.72;0.60;;;15.90;91.50;;;;;;4792316;29;20111;-86
2022/05/03 13:40:58;;;;;;;2.80;0.60;;;15.80;92.80;;;;;;4808260;29;20057;-85
2022/05/03 13:43:26;;;;;;;2.95;0.60;;;16.30;93.60;;;;;;4809645;29;20509;-88
2022/05/03 13:45:52;;;;;;;3.10;0.50;;;16.20;92.10;;;;;;4808250;29;20148;-82
2022/05/03 13:48:18;;;;;;;2.70;0.80;;;16.10;91.10;;;;;;4808505;29;20112;-83
2022/05/03 13:50:43;;;;;;;4.05;0.80;;;15.80;91.00;;;;;;4808061;29;20051;-83
2022/05/03 13:53:11;;;;;;;2.38;0.50;;;15.60;91.80;;;;;;4790950;29;20051;-81
2022/05/03 13:55:39;;;;;;;2.13;0.60;;;15.90;91.50;;;;;;4807661;29;20473;-83
2022/05/03 13:58:09;;;;;;;8.18;0.75;;;15.80;93.20;;;;;;4791003;29;20058;-85
2022/05/03 14:00:37;;;;;;;3.50;0.65;;;16.20;89.10;;;;;;4806959;29;20498;-84
2022/05/03 14:03:04;;;;;;;4.07;0.57;;;15.90;91.60;;;;;;4807611;29;20096;-84
2022/05/03 14:05:30;;;;;;;5.90;0.80;;;15.40;93.50;;;;;;4807433;29;20059;-82
2022/05/03 14:07:56;;;;;;;5.53;0.60;;;15.30;95.10;;;;;;4807337;29;20055;-84
2022/05/03 14:10:22;;;;;;;4.43;0.85;;;15.30;93.90;;;;;;4807274;29;20061;-83
2022/05/03 14:12:47;;;;;;;4.85;0.70;;;15.10;94.80;;;;;;4807334;29;20047;-84
2022/05/03 14:15:13;;;;;;;2.90;0.60;;;14.90;94.60;;;;;;4807107;29;20474;-83
2022/05/03 14:17:39;;;;;;;2.70;0.70;;;14.80;96.20;;;;;;4807215;29;20051;-86
2022/05/03 14:20:05;;;;;;;3.50;1.20;;;15.00;96.70;;;;;;4807174;29;20142;-86
2022/05/03 14:22:31;;;;;;;4.15;0.50;;;14.60;96.80;;;;;;4806865;29;20059;-85
2022/05/03 14:24:56;;;;;;;4.00;0.45;;;14.90;99.20;;;;;;4791241;29;20081;-83
2022/05/03 14:27:22;;;;;;;1.65;0.60;;;15.20;97.20;;;;;;4807082;29;20439;-87
2022/05/03 14:29:49;;;;;;;5.30;0.60;;;15.00;97.60;;;;;;4791835;29;20386;-89
2022/05/03 14:32:15;;;;;;;4.38;0.60;;;15.10;95.60;;;;;;4809895;29;20417;-91
2022/05/03 14:34:41;;;;;;;7.03;0.70;;;15.20;96.10;;;;;;4829347;29;20054;-81
2022/05/03 14:37:06;;;;;;;3.05;0.43;;;15.40;96.60;;;;;;4804326;29;20063;-85
2022/05/03 14:39:32;;;;;;;4.38;0.60;;;15.60;95.00;;;;;;4806718;29;20063;-85
2022/05/03 14:42:02;;;;;;;2.33;0.63;;;15.20;96.10;;;;;;4806643;29;20058;-85
2022/05/03 14:44:28;;;;;;;6.28;0.75;;;15.10;96.10;;;;;;4806770;29;20123;-87
2022/05/03 14:46:54;;;;;;;3.95;0.65;;;15.10;96.10;;;;;;4790533;29;20142;-88
2022/05/03 14:49:19;;;;;;;4.15;0.80;;;15.50;96.10;;;;;;4789965;29;20059;-88
2022/05/03 14:51:45;;;;;;;4.53;0.73;;;15.50;94.00;;;;;;4789655;29;20053;-89
2022/05/03 14:54:14;;;;;;;4.95;0.70;;;15.10;93.30;;;;;;4806681;29;20062;-87
2022/05/03 15:05:01;;;;;;;2.15;0.60;;;14.70;98.20;;;;;;4789914;29;20063;-87
2022/05/03 15:07:26;;;;;;;2.75;0.50;;;14.50;97.60;;;;;;4805803;29;20137;-89
2022/05/03 15:09:52;;;;;;;5.85;0.60;;;14.70;98.10;;;;;;4794320;29;20070;-85
2022/05/03 15:12:18;;;;;;;2.40;0.80;;;14.60;94.60;;;;;;4815595;29;20050;-89
2022/05/03 15:14:44;;;;;;;3.58;0.77;;;14.50;97.60;;;;;;4790070;29;20066;-88
2022/05/03 15:17:10;;;;;;;4.78;0.80;;;14.50;96.90;;;;;;4795636;29;20050;-84
2022/05/03 15:19:35;;;;;;;3.50;0.70;;;14.70;95.60;;;;;;4790144;29;20059;-85
2022/05/03 15:22:02;;;;;;;8.15;0.80;;;14.70;96.60;;;;;;4810050;29;20065;-86
2022/05/03 15:24:37;;;;;;;2.80;0.60;;;14.40;97.40;;;;;;4807684;29;20137;-86
2022/05/03 15:27:12;;;;;;;3.22;0.82;;;14.50;96.10;;;;;;4789291;29;20078;-85
2022/05/03 15:29:42;;;;;;;4.85;0.70;;;14.30;96.90;;;;;;4812586;29;20057;-87
2022/05/03 15:32:27;;;;;;;4.10;0.80;;;14.30;96.60;;;;;;4789134;29;20063;-88
2022/05/03 15:34:54;;;;;;;3.83;0.70;;;14.20;97.50;;;;;;4795785;29;20158;-92